• Join FlightAware (Why Join?)
  • Login
  • US Flag GB Flag 
00:48 EDT


 

Airport Tracker/Info


-or-


 

Live Flight TrackerFlight Track Log ✈ AAR214 ✈ 06-Jul-2013 ✈ RKSI / ICN - KSFO

Flight Track Log - Related Links

Times and Time Zones

All times are in EDT time to prevent confusion due to time zone crossing. See the AAR214 flight status page for this flight to view local times or setup timezone preferences in your user account.

Time Position Orientation Groundspeed Altitude Reporting Facility
EDT Latitude Longitude Course Direction KTS MPH feet Rate Location/Type
03:59 37.9992 127.2031 48° Northeast  Level FlightAware Approximate
03:59 37.4690 126.3550 49° Northeast 326 375 11,800  Level FlightAware
04:00 38.0871 127.3295 49° Northeast  Level FlightAware Approximate
04:00 37.4490 126.4500 105° East 329 379 13,000  Level FlightAware
04:01 37.4210 126.5620 107° East 347 399 15,600 2,280 Climbing FlightAware
04:02 37.4050 126.6330 106° East 356 410 16,700 1,800 Climbing FlightAware
04:02 37.3880 126.7060 106° East 360 414 17,900 1,860 Climbing FlightAware
04:03 37.3820 126.8240 94° East 368 423 19,500 1,560 Climbing FlightAware
04:04 37.3990 126.9190 77° East 379 436 20,600 1,380 Climbing FlightAware
04:05 37.4150 127.0070 77° East 388 447 21,500 1,380 Climbing FlightAware
04:05 37.4340 127.1100 77° East 397 457 22,600 1,320 Climbing FlightAware
04:06 37.4490 127.1890 77° East 404 465 23,300 1,080 Climbing FlightAware
04:07 37.4680 127.2960 77° East 417 480 24,100 1,020 Climbing FlightAware
04:08 37.4870 127.4020 77° East 429 494 24,900 960 Climbing FlightAware
04:08 37.5040 127.5020 78° East 444 511 25,500 900 Climbing FlightAware
04:09 37.5180 127.6050 80° East 455 524 26,100 960 Climbing FlightAware
04:10 37.5010 127.7110 101° East 458 527 26,800 900 Climbing FlightAware
04:10 37.4660 127.8380 109° East 471 542 27,500 720 Climbing FlightAware
04:11 37.4390 127.9310 110° East 481 554 27,900 420 Climbing FlightAware
04:12 37.4070 128.0440 110° East 489 563 28,100 120 Climbing FlightAware
04:13 37.3770 128.1540 109° East 489 563 28,100  Level FlightAware
04:13 37.3550 128.2360 109° East 489 563 28,100  Level FlightAware
04:14 37.3240 128.3480 109° East 489 563 28,100  Level FlightAware
04:15 37.2780 128.5150 109° East 489 563 28,100 180 Level FlightAware
04:18 37.4781 128.8092 49° Northeast  Level Estimated
04:19 37.5643 128.9366 50° Northeast  Level Estimated
04:20 37.6503 129.0644 50° Northeast  Level Estimated
04:21 37.7362 129.1925 50° Northeast  Level Estimated
04:22 37.8220 129.3208 50° Northeast  Level Estimated
04:23 37.9076 129.4495 50° Northeast  Level Estimated
04:24 37.9930 129.5785 50° Northeast  Level Estimated
04:25 38.0784 129.7077 50° Northeast  Level Estimated
04:26 38.1636 129.8373 50° Northeast  Level Estimated
04:27 38.2486 129.9671 50° Northeast  Level Estimated
04:28 38.3335 130.0973 50° Northeast  Level Estimated
04:29 38.4183 130.2278 50° Northeast  Level Estimated
04:30 38.5029 130.3586 50° Northeast  Level Estimated
04:30 36.4650 131.1450 50° Northeast 520 598 31,000  Level FlightAware
04:30 36.4290 131.2570 112° Southeast 520 598 31,000  Level FlightAware
04:31 36.3940 131.3670 112° Southeast 521 600 31,000  Level FlightAware
04:32 36.3580 131.4840 111° Southeast 521 600 31,000  Level FlightAware
04:33 36.3650 131.6580 87° East 31,000  Level FlightAware
04:34 36.3610 131.8330 92° East 547 629 31,000  Level FlightAware
04:34 36.3560 131.9720 93° East 544 626 31,000  Level FlightAware
04:35 36.3520 132.1310 92° East 544 626 31,000  Level FlightAware
04:36 36.3440 132.3080 93° East 547 629 31,000  Level FlightAware
04:37 36.3400 132.4750 92° East 547 629 31,000  Level FlightAware
04:38 36.3320 132.6160 94° East 547 629 31,000  Level FlightAware
04:39 36.3260 132.7660 93° East 545 627 31,000  Level FlightAware
04:39 36.3220 132.8760 93° East 543 625 31,000  Level FlightAware
04:40 36.3170 133.0000 93° East 541 623 31,000  Level FlightAware
04:41 36.3110 133.1250 93° East 539 620 31,000  Level FlightAware
04:41 36.3050 133.2620 93° East 538 619 31,000  Level FlightAware
04:42 36.2990 133.3860 93° East 536 617 31,000  Level FlightAware
04:43 36.2940 133.5070 93° East 535 616 31,000  Level FlightAware
04:43 36.2880 133.6400 93° East 535 616 31,000  Level FlightAware
04:44 36.2810 133.7780 94° East 534 615 31,000  Level FlightAware
04:45 36.2750 133.9010 93° East 532 612 31,000  Level FlightAware
04:45 36.2680 134.0320 94° East 530 610 31,000  Level FlightAware
04:46 36.2620 134.1550 93° East 530 610 31,000  Level FlightAware
04:47 36.2550 134.2750 94° East 532 612 31,000  Level FlightAware
04:48 36.2480 134.4030 94° East 532 612 31,000  Level FlightAware
04:48 36.2470 134.5330 91° East 535 616 31,000  Level FlightAware
04:49 36.2570 134.6680 85° East 538 619 31,000  Level FlightAware
04:50 36.2680 134.7910 84° East 540 621 31,000  Level FlightAware
04:50 36.2800 134.9340 84° East 540 621 31,000  Level FlightAware
04:51 36.2910 135.0550 84° East 538 619 31,000  Level FlightAware
04:52 36.3010 135.1730 84° East 539 620 31,000  Level FlightAware
04:52 36.3120 135.3160 85° East 538 619 31,000  Level FlightAware
04:53 36.3220 135.4360 84° East 537 618 31,000  Level FlightAware
04:54 36.3320 135.5570 84° East 536 617 31,000  Level FlightAware
04:55 36.3430 135.6990 84° East 535 616 31,000  Level FlightAware
04:55 36.3510 135.8040 85° East 534 615 31,000  Level FlightAware
04:56 36.3640 135.9630 84° East 532 612 31,000  Level FlightAware
04:57 36.3730 136.0860 85° East 532 612 31,000  Level FlightAware
04:57 36.3820 136.2070 85° East 531 611 31,000  Level FlightAware
04:58 36.3900 136.3130 85° East 531 611 31,000  Level FlightAware
04:59 36.3990 136.4380 85° East 531 611 31,000  Level FlightAware
04:59 36.4120 136.5600 82° East 532 612 31,000  Level FlightAware
05:00 36.4250 136.6800 82° East 530 610 31,000  Level FlightAware
05:01 36.4380 136.8010 82° East 531 611 31,000  Level FlightAware
05:01 36.4500 136.9210 83° East 528 608 31,000  Level FlightAware
05:02 36.4620 137.0380 83° East 526 605 31,000  Level FlightAware
05:03 36.4730 137.1530 83° East 527 606 31,000  Level FlightAware
05:03 36.4880 137.3100 83° East 527 606 31,000  Level FlightAware
05:04 36.5000 137.4320 83° East 525 604 31,000  Level FlightAware
05:05 36.5110 137.5480 83° East 526 605 31,000  Level FlightAware
05:06 36.5240 137.6860 83° East 526 605 31,000  Level FlightAware
05:06 36.5390 137.8490 83° East 527 606 31,000  Level FlightAware
05:07 36.5490 137.9500 83° East 524 603 31,000  Level FlightAware
05:08 36.5600 138.0780 84° East 525 604 31,000  Level FlightAware
05:08 36.5720 138.2040 83° East 526 605 31,000 360 Level FlightAware
05:09 36.5850 138.3510 84° East 525 604 31,600 660 Climbing FlightAware
05:10 36.5950 138.4710 84° East 523 602 32,000 180 Climbing FlightAware
05:11 36.6070 138.6080 84° East 522 601 32,000  Level FlightAware
05:12 36.6230 138.7890 84° East 523 602 32,000  Level FlightAware
05:12 36.6330 138.9060 84° East 521 600 32,000  Level FlightAware
05:13 36.6430 139.0330 84° East 520 598 32,000  Level FlightAware
05:14 36.6530 139.1560 84° East 520 598 32,000  Level FlightAware
05:14 36.6620 139.2700 84° East 518 596 32,000  Level FlightAware
05:15 36.6740 139.4150 84° East 515 593 32,000  Level FlightAware
05:16 36.6830 139.5320 84° East 516 594 32,000  Level FlightAware
05:17 36.6940 139.6660 84° East 520 598 32,000  Level FlightAware
05:17 36.7030 139.7810 84° East 519 597 32,000  Level FlightAware
05:18 36.7130 139.9140 85° East 521 600 32,000  Level FlightAware
05:19 36.7230 140.0500 85° East 524 603 32,000  Level FlightAware
05:19 36.7320 140.1800 85° East 526 605 32,000  Level FlightAware
05:20 36.7410 140.2960 84° East 528 608 32,000  Level FlightAware
05:21 36.7500 140.4170 85° East 528 608 32,000  Level FlightAware
05:21 36.7600 140.5360 84° East 530 610 32,000  Level FlightAware
05:22 36.7720 140.6690 84° East 528 608 32,000  Level FlightAware
05:23 36.7810 140.7790 84° East 526 605 32,000  Level FlightAware
05:23 36.7910 140.8930 84° East 526 605 32,000  Level FlightAware
05:24 36.8010 141.0200 84° East 526 605 32,000  Level FlightAware
05:25 36.8100 141.1410 85° East 526 605 32,000  Level FlightAware
05:26 36.8210 141.2800 84° East 526 605 32,000  Level FlightAware
05:26 36.8300 141.3910 84° East 525 604 32,000 660 Level FlightAware
05:27 36.8390 141.5080 84° East 518 596 32,900 1,020 Climbing FlightAware
05:28 36.8530 141.6850 84° East 515 593 33,700 660 Climbing FlightAware
05:29 36.8620 141.8120 85° East 516 594 34,000 180 Climbing FlightAware
05:29 36.8690 141.9100 85° East 517 595 34,000  Level FlightAware
05:30 36.8790 142.0480 85° East 514 592 34,000  Level FlightAware
05:31 36.8890 142.1820 85° East 514 592 34,000  Level FlightAware
05:31 36.8970 142.2990 85° East 513 590 34,000  Level FlightAware
05:32 36.9050 142.4180 85° East 513 590 34,000  Level FlightAware
05:33 36.9140 142.5420 85° East 513 590 34,000  Level FlightAware
05:33 36.9210 142.6630 86° East 513 590 34,000  Level FlightAware
05:34 36.9310 142.7940 85° East 514 592 34,000  Level FlightAware
05:35 36.9390 142.9160 85° East 514 592 34,000  Level FlightAware
05:36 36.9480 143.0670 86° East 514 592 34,000  Level FlightAware
05:36 36.9550 143.1810 86° East 514 592 34,000  Level FlightAware
05:37 36.9630 143.3050 85° East 514 592 34,000  Level FlightAware
05:38 36.9700 143.4220 86° East 513 590 34,000  Level FlightAware
05:39 36.9790 143.5750 86° East 515 593 34,000  Level FlightAware
05:39 36.9880 143.7080 85° East 516 594 34,000  Level FlightAware
05:40 36.9940 143.8370 87° East 517 595 34,000  Level FlightAware
05:41 37.0010 143.9550 86° East 517 595 34,000  Level FlightAware
05:41 37.0140 144.0860 83° East 517 595 34,000  Level FlightAware
05:42 37.0300 144.2190 81° East 517 595 34,000  Level FlightAware
05:43 37.0480 144.3670 81° East 518 596 34,000  Level FlightAware
05:44 37.0620 144.4860 82° East 519 597 34,000  Level FlightAware
05:44 37.0790 144.6230 81° East 520 598 34,000  Level FlightAware
05:45 37.0900 144.7220 82° East 520 598 34,000  Level FlightAware
05:46 37.1080 144.8700 81° East 517 595 34,000  Level FlightAware
05:46 37.1220 144.9890 82° East 515 593 34,000  Level FlightAware
05:47 37.1380 145.1280 82° East 514 592 34,000  Level FlightAware
05:48 37.1480 145.2210 82° East 514 592 34,000  Level FlightAware
05:49 37.1580 145.3140 82° East 514 592 34,000  Level FlightAware
05:49 37.1680 145.4050 82° East 514 592 34,000  Level FlightAware
05:50 37.1820 145.5250 82° East 514 592 34,000  Level FlightAware
05:51 37.1920 145.6180 82° East 514 592 34,000  Level FlightAware
05:51 37.2030 145.7110 82° East 514 592 34,000  Level FlightAware
05:52 37.2160 145.8270 82° East 514 592 34,000  Level FlightAware
05:52 37.2250 145.9120 82° East 514 592 34,000  Level FlightAware
05:53 37.2390 146.0330 82° East 514 592 34,000  Level FlightAware
05:54 37.2490 146.1260 82° East 514 592 34,000  Level FlightAware
05:55 37.2620 146.2440 82° East 514 592 34,000  Level FlightAware
05:55 37.2730 146.3370 82° East 514 592 34,000  Level FlightAware
05:56 37.2860 146.4600 82° East 514 592 34,000  Level FlightAware
05:57 37.3000 146.5810 82° East 514 592 34,000  Level FlightAware
06:00 37.4811 146.9478 58° Northeast  Level Estimated
06:01 37.5509 147.0903 58° Northeast  Level Estimated
06:02 37.6206 147.2331 58° Northeast  Level Estimated
06:03 37.6900 147.3761 58° Northeast  Level Estimated
06:04 37.7593 147.5194 59° Northeast  Level Estimated
06:05 37.8285 147.6629 59° Northeast  Level Estimated
06:06 37.8974 147.8067 59° Northeast  Level Estimated
06:07 37.9662 147.9508 59° Northeast  Level Estimated
06:08 38.0348 148.0952 59° Northeast  Level Estimated
06:09 38.1032 148.2398 59° Northeast  Level Estimated
06:10 38.1714 148.3847 59° Northeast  Level Estimated
06:11 38.2395 148.5299 59° Northeast  Level Estimated
06:12 38.3074 148.6753 59° Northeast  Level Estimated
06:13 38.3751 148.8211 59° Northeast  Level Estimated
06:14 38.4426 148.9671 59° Northeast  Level Estimated
06:15 38.5099 149.1133 59° Northeast  Level Estimated
06:16 38.5771 149.2598 60° Northeast  Level Estimated
06:17 38.6441 149.4066 60° Northeast  Level Estimated
06:18 38.7109 149.5537 60° Northeast  Level Estimated
06:19 38.7775 149.7011 60° Northeast  Level Estimated
06:20 38.8439 149.8487 60° Northeast  Level Estimated
06:21 38.9101 149.9966 60° Northeast  Level Estimated
06:22 38.9762 150.1448 60° Northeast  Level Estimated
06:23 39.0420 150.2933 60° Northeast  Level Estimated
06:24 39.1077 150.4420 60° Northeast  Level Estimated
06:25 39.1732 150.5910 60° Northeast  Level Estimated
06:26 39.2385 150.7403 61° Northeast  Level Estimated
06:27 39.3036 150.8899 61° Northeast  Level Estimated
06:28 39.3685 151.0397 61° Northeast  Level Estimated
06:29 39.4332 151.1899 61° Northeast  Level Estimated
06:30 39.4977 151.3403 61° Northeast  Level Estimated
06:31 39.5621 151.4909 61° Northeast  Level Estimated
06:32 39.6262 151.6419 61° Northeast  Level Estimated
06:33 39.7114 151.8435 61° Northeast  Level Estimated
06:34 39.7962 152.0456 61° Northeast  Level Estimated
06:35 39.8806 152.2482 61° Northeast  Level Estimated
06:36 39.9647 152.4513 62° Northeast  Level Estimated
06:37 40.0485 152.6549 62° Northeast  Level Estimated
06:38 40.1319 152.8590 62° Northeast  Level Estimated
06:39 40.2149 153.0636 62° Northeast  Level Estimated
06:40 40.2976 153.2687 62° Northeast  Level Estimated
06:41 40.3799 153.4743 62° Northeast  Level Estimated
06:42 40.4619 153.6805 62° Northeast  Level Estimated
06:43 40.5434 153.8871 62° Northeast  Level Estimated
06:44 40.6247 154.0942 63° Northeast  Level Estimated
06:45 40.7055 154.3018 63° Northeast  Level Estimated
06:46 40.7860 154.5099 63° Northeast  Level Estimated
06:47 40.8661 154.7185 63° Northeast  Level Estimated
06:48 40.9458 154.9277 63° Northeast  Level Estimated
06:49 41.0251 155.1373 63° Northeast  Level Estimated
06:50 41.1041 155.3474 63° Northeast  Level Estimated
06:51 41.1827 155.5581 64° Northeast  Level Estimated
06:52 41.2608 155.7692 64° Northeast  Level Estimated
06:53 41.3386 155.9809 64° Northeast  Level Estimated
06:54 41.4160 156.1930 64° Northeast  Level Estimated
06:55 41.4931 156.4057 64° Northeast  Level Estimated
06:56 41.5697 156.6189 64° Northeast  Level Estimated
06:57 41.6459 156.8325 64° Northeast  Level Estimated
06:58 41.7218 157.0467 65° Northeast  Level Estimated
06:59 41.7972 157.2614 65° Northeast  Level Estimated
07:00 41.8723 157.4766 65° Northeast  Level Estimated
07:01 41.9469 157.6923 65° Northeast  Level Estimated
07:02 42.0211 157.9085 65° Northeast  Level Estimated
07:03 42.0950 158.1252 65° Northeast  Level Estimated
07:04 42.1684 158.3424 65° Northeast  Level Estimated
07:05 42.2414 158.5601 66° East  Level Estimated
07:06 42.3140 158.7783 66° East  Level Estimated
07:07 42.3862 158.9970 66° East  Level Estimated
07:08 42.4579 159.2162 66° East  Level Estimated
07:09 42.5293 159.4359 66° East  Level Estimated
07:10 42.6002 159.6561 66° East  Level Estimated
07:11 42.6707 159.8768 66° East  Level Estimated
07:12 42.7408 160.0981 67° East  Level Estimated
07:13 42.8104 160.3198 67° East  Level Estimated
07:14 42.8796 160.5420 67° East  Level Estimated
07:15 42.9484 160.7647 67° East  Level Estimated
07:16 43.0168 160.9879 67° East  Level Estimated
07:17 43.0847 161.2116 67° East  Level Estimated
07:18 43.1522 161.4358 68° East  Level Estimated
07:19 43.2192 161.6605 68° East  Level Estimated
07:20 43.2859 161.8857 68° East  Level Estimated
07:21 43.3520 162.1114 68° East  Level Estimated
07:22 43.4177 162.3375 68° East  Level Estimated
07:23 43.4830 162.5642 68° East  Level Estimated
07:24 43.5478 162.7914 68° East  Level Estimated
07:25 43.6122 163.0190 69° East  Level Estimated
07:26 43.6761 163.2471 69° East  Level Estimated
07:27 43.7396 163.4757 69° East  Level Estimated
07:28 43.8026 163.7048 69° East  Level Estimated
07:29 43.8651 163.9344 69° East  Level Estimated
07:30 43.9272 164.1644 69° East  Level Estimated
07:31 43.9889 164.3949 70° East  Level Estimated
07:32 44.0500 164.6260 70° East  Level Estimated
07:33 44.1107 164.8574 70° East  Level Estimated
07:34 44.1710 165.0894 70° East  Level Estimated
07:35 44.2307 165.3218 70° East  Level Estimated
07:36 44.2900 165.5547 70° East  Level Estimated
07:37 44.3488 165.7881 71° East  Level Estimated
07:38 44.4072 166.0219 71° East  Level Estimated
07:39 44.4650 166.2562 71° East  Level Estimated
07:40 44.5224 166.4910 71° East  Level Estimated
07:41 44.5793 166.7262 71° East  Level Estimated
07:42 44.6357 166.9619 71° East  Level Estimated
07:43 44.6916 167.1980 71° East  Level Estimated
07:44 44.7471 167.4346 72° East  Level Estimated
07:45 44.8020 167.6717 72° East  Level Estimated
07:46 44.8565 167.9092 72° East  Level Estimated
07:47 44.9104 168.1471 72° East  Level Estimated
07:48 44.9639 168.3855 72° East  Level Estimated
07:49 45.0169 168.6243 73° East  Level Estimated
07:50 45.0694 168.8636 73° East  Level Estimated
07:51 45.1213 169.1033 73° East  Level Estimated
07:51 45.6167 164.8667 67° East 498 573 34,000  Level Oakland Oceanic (ODAPS)
07:52 45.1728 169.3435 73° East  Level Estimated
07:53 45.2238 169.5840 73° East  Level Estimated
07:54 45.2743 169.8251 73° East  Level Estimated
07:55 45.3242 170.0665 74° East  Level Estimated
07:56 45.3736 170.3083 74° East  Level Estimated
07:57 45.9323 165.9447 68° East 498 573 34,000  Level FlightAware Transoceanic
07:58 45.9839 166.1255 68° East 498 573 34,000  Level FlightAware Transoceanic
07:59 46.0352 166.3067 68° East 498 573 34,000  Level FlightAware Transoceanic
08:00 46.0862 166.4882 68° East 498 573 34,000  Level FlightAware Transoceanic
08:01 46.1370 166.6701 68° East 498 573 34,000  Level FlightAware Transoceanic
08:02 46.1874 166.8523 68° East 498 573 34,000  Level FlightAware Transoceanic
08:03 46.2376 167.0348 68° East 498 573 34,000  Level FlightAware Transoceanic
08:04 46.2875 167.2177 69° East 498 573 34,000  Level FlightAware Transoceanic
08:05 46.3371 167.4009 69° East 498 573 34,000  Level FlightAware Transoceanic
08:06 46.3863 167.5844 69° East 498 573 34,000  Level FlightAware Transoceanic
08:07 46.4353 167.7683 69° East 498 573 34,000  Level FlightAware Transoceanic
08:08 46.4840 167.9524 69° East 498 573 34,000  Level FlightAware Transoceanic
08:09 46.5325 168.1370 69° East 498 573 34,000  Level FlightAware Transoceanic
08:10 46.5806 168.3218 69° East 498 573 34,000  Level FlightAware Transoceanic
08:11 46.6284 168.5070 69° East 498 573 34,000  Level FlightAware Transoceanic
08:12 46.6759 168.6925 70° East 498 573 34,000  Level FlightAware Transoceanic
08:13 46.7231 168.8783 70° East 498 573 34,000  Level FlightAware Transoceanic
08:14 46.7700 169.0644 70° East 498 573 34,000  Level FlightAware Transoceanic
08:15 46.8166 169.2509 70° East 498 573 34,000  Level FlightAware Transoceanic
08:16 46.8629 169.4377 70° East 498 573 34,000  Level FlightAware Transoceanic
08:17 46.9089 169.6248 70° East 498 573 34,000  Level FlightAware Transoceanic
08:18 46.9546 169.8123 70° East 498 573 34,000  Level FlightAware Transoceanic
08:18 46.9167 169.6500 71° East 486 559 34,000  Level Oakland Oceanic (ODAPS)
08:19 47.0000 170.0000 70° East 498 573 34,000  Level FlightAware Transoceanic
08:20 47.0456 170.1812 70° East 498 573 34,000  Level FlightAware Transoceanic
08:20 47.0000 170.0000 70° East 484 557 34,000  Level Oakland Oceanic (ODAPS)
08:21 47.0909 170.3627 70° East 498 573 34,000  Level FlightAware Transoceanic
08:22 47.1359 170.5445 70° East 498 573 34,000  Level FlightAware Transoceanic
08:23 47.1806 170.7266 70° East 498 573 34,000  Level FlightAware Transoceanic
08:24 47.1806 170.7266 70° East 486 559 34,000  Level FlightAware Transoceanic
08:25 47.2250 170.9090 70° East 486 559 34,000  Level FlightAware Transoceanic
08:26 47.2742 171.1128 70° East 484 557 34,000  Level FlightAware Transoceanic
08:27 47.3189 171.2994 71° East 484 557 34,000  Level FlightAware Transoceanic
08:28 47.3632 171.4863 71° East 484 557 34,000  Level FlightAware Transoceanic
08:29 47.4073 171.6735 71° East 484 557 34,000  Level FlightAware Transoceanic
08:30 47.4510 171.8610 71° East 484 557 34,000  Level FlightAware Transoceanic
08:31 47.4945 172.0489 71° East 484 557 34,000  Level FlightAware Transoceanic
08:32 47.5376 172.2370 71° East 484 557 34,000  Level FlightAware Transoceanic
08:33 47.5804 172.4255 71° East 484 557 34,000  Level FlightAware Transoceanic
08:34 47.6229 172.6142 72° East 484 557 34,000  Level FlightAware Transoceanic
08:35 47.6651 172.8033 72° East 484 557 34,000  Level FlightAware Transoceanic
08:36 47.7070 172.9927 72° East 484 557 34,000  Level FlightAware Transoceanic
08:37 47.7486 173.1823 72° East 484 557 34,000  Level FlightAware Transoceanic
08:38 47.7898 173.3723 72° East 484 557 34,000  Level FlightAware Transoceanic
08:39 47.8308 173.5626 72° East 484 557 34,000  Level FlightAware Transoceanic
08:40 47.8714 173.7532 72° East 484 557 34,000  Level FlightAware Transoceanic
08:41 47.9117 173.9440 73° East 484 557 34,000  Level FlightAware Transoceanic
08:42 47.9517 174.1352 73° East 484 557 34,000  Level FlightAware Transoceanic
08:43 47.9914 174.3267 73° East 484 557 34,000  Level FlightAware Transoceanic
08:44 48.0308 174.5184 73° East 484 557 34,000  Level FlightAware Transoceanic
08:44 48.0500 174.6167 73° East 486 559 34,000  Level Oakland Oceanic (ODAPS)
08:45 48.0698 174.7105 73° East 484 557 34,000  Level FlightAware Transoceanic
08:46 48.1086 174.9028 73° East 484 557 34,000  Level FlightAware Transoceanic
08:47 48.1470 175.0954 73° East 484 557 34,000  Level FlightAware Transoceanic
08:48 48.1851 175.2884 74° East 484 557 34,000  Level FlightAware Transoceanic
08:49 48.2228 175.4816 74° East 484 557 34,000  Level FlightAware Transoceanic
08:50 48.2447 175.5980 74° East 486 559 34,000  Level FlightAware Transoceanic
08:51 48.2827 175.7952 74° East 486 559 34,000  Level FlightAware Transoceanic
08:52 48.3203 175.9926 74° East 486 559 34,000  Level FlightAware Transoceanic
08:53 48.3575 176.1904 74° East 486 559 34,000  Level FlightAware Transoceanic
08:54 48.3945 176.3884 74° East 486 559 34,000  Level FlightAware Transoceanic
08:55 48.4310 176.5867 75° East 486 559 34,000  Level FlightAware Transoceanic
08:56 48.4673 176.7853 75° East 486 559 34,000  Level FlightAware Transoceanic
08:57 48.5032 176.9842 75° East 486 559 34,000  Level FlightAware Transoceanic
08:58 48.5387 177.1834 75° East 486 559 34,000  Level FlightAware Transoceanic
08:59 48.5739 177.3828 75° East 486 559 34,000  Level FlightAware Transoceanic
09:00 48.6088 177.5826 75° East 486 559 34,000  Level FlightAware Transoceanic
09:01 48.6433 177.7825 75° East 486 559 34,000  Level FlightAware Transoceanic
09:02 48.6775 177.9828 76° East 486 559 34,000  Level FlightAware Transoceanic
09:03 48.7113 178.1833 76° East 486 559 34,000  Level FlightAware Transoceanic
09:04 48.7448 178.3842 76° East 486 559 34,000  Level FlightAware Transoceanic
09:05 48.7780 178.5852 76° East 486 559 34,000  Level FlightAware Transoceanic
09:06 48.8107 178.7866 76° East 486 559 34,000  Level FlightAware Transoceanic
09:07 48.8432 178.9882 76° East 486 559 34,000  Level FlightAware Transoceanic
09:08 48.8752 179.1900 76° East 486 559 34,000  Level FlightAware Transoceanic
09:09 48.9070 179.3921 77° East 486 559 34,000  Level FlightAware Transoceanic
09:10 48.9383 179.5945 77° East 486 559 34,000  Level FlightAware Transoceanic
09:11 48.9693 179.7971 77° East 486 559 34,000  Level FlightAware Transoceanic
09:12 49.0000 -180.0000 86° East 486 559 34,000  Level FlightAware Transoceanic
09:12 48.9833 179.8500 80° East 498 573 34,000  Level Oakland Oceanic (ODAPS)
09:13 49.0090 -179.7878 86° East 486 559 34,000  Level FlightAware Transoceanic
09:13 49.0000 180.0000 86° East 505 581 34,000  Level Oakland Oceanic (ODAPS)
09:14 49.0176 -179.5755 87° East 486 559 34,000  Level FlightAware Transoceanic
09:15 49.0258 -179.3632 87° East 486 559 34,000  Level FlightAware Transoceanic
09:16 49.0336 -179.1508 87° East 486 559 34,000  Level FlightAware Transoceanic
09:17 49.0411 -178.9383 87° East 486 559 34,000  Level FlightAware Transoceanic
09:18 49.0481 -178.7258 87° East 498 573 34,000  Level FlightAware Transoceanic
09:19 49.0548 -178.5132 87° East 505 581 34,000  Level FlightAware Transoceanic
09:20 49.0611 -178.3006 88° East 505 581 34,000  Level FlightAware Transoceanic
09:21 49.0669 -178.0879 88° East 505 581 34,000  Level FlightAware Transoceanic
09:22 49.0724 -177.8751 88° East 505 581 34,000  Level FlightAware Transoceanic
09:23 49.0775 -177.6623 88° East 505 581 34,000  Level FlightAware Transoceanic
09:24 49.0822 -177.4495 88° East 505 581 34,000  Level FlightAware Transoceanic
09:25 49.0865 -177.2366 88° East 505 581 34,000  Level FlightAware Transoceanic
09:26 49.0904 -177.0237 88° East 505 581 34,000  Level FlightAware Transoceanic
09:27 49.0940 -176.8108 89° East 505 581 34,000  Level FlightAware Transoceanic
09:28 49.0971 -176.5978 89° East 505 581 34,000  Level FlightAware Transoceanic
09:29 49.0998 -176.3848 89° East 505 581 34,000  Level FlightAware Transoceanic
09:30 49.1022 -176.1718 89° East 505 581 34,000  Level FlightAware Transoceanic
09:31 49.1042 -175.9588 89° East 505 581 34,000  Level FlightAware Transoceanic
09:32 49.1057 -175.7457 89° East 505 581 34,000  Level FlightAware Transoceanic
09:33 49.1069 -175.5327 90° East 505 581 34,000  Level FlightAware Transoceanic
09:34 49.1077 -175.3196 90° East 505 581 34,000  Level FlightAware Transoceanic
09:35 49.1081 -175.1065 90° East 505 581 34,000  Level FlightAware Transoceanic
09:36 49.1081 -174.8935 90° East 505 581 34,000  Level FlightAware Transoceanic
09:37 49.1077 -174.6804 90° East 505 581 34,000 1,260 Level FlightAware Transoceanic
09:38 49.1000 -174.6167 90° East 507 583 37,000 2,280 Climbing Oakland Oceanic (ODAPS)
09:38 49.1000 -174.6167 90° East 507 583 37,000  Level Oakland Oceanic (ODAPS)
09:39 49.1057 -174.2543 91° East 505 581 37,000  Level FlightAware Transoceanic
09:40 49.1042 -174.0412 91° East 505 581 37,000  Level FlightAware Transoceanic
09:41 49.1022 -173.8282 91° East 505 581 37,000  Level FlightAware Transoceanic
09:42 49.0998 -173.6152 91° East 505 581 37,000  Level FlightAware Transoceanic
09:43 49.0971 -173.4022 91° East 505 581 37,000  Level FlightAware Transoceanic
09:43 49.0919 -173.4260 91° East 507 583 37,000  Level FlightAware Transoceanic
09:44 49.0910 -173.3560 91° East 507 583 37,000  Level FlightAware Transoceanic
09:45 49.0882 -173.1459 91° East 507 583 37,000  Level FlightAware Transoceanic
09:45 49.0882 -173.1459 91° East 507 583 37,000  Level FlightAware Transoceanic
09:46 49.0849 -172.9359 91° East 507 583 37,000  Level FlightAware Transoceanic
09:46 49.0849 -172.9359 91° East 507 583 37,000  Level FlightAware Transoceanic
09:47 49.0814 -172.7259 92° East 507 583 37,000  Level FlightAware Transoceanic
09:47 49.0814 -172.7259 92° East 507 583 37,000  Level FlightAware Transoceanic
09:48 49.0774 -172.5159 92° East 507 583 37,000  Level FlightAware Transoceanic
09:48 49.0774 -172.5159 92° East 507 583 37,000  Level FlightAware Transoceanic
09:49 49.0730 -172.3060 92° East 507 583 37,000  Level FlightAware Transoceanic
09:49 49.0730 -172.3060 92° East 507 583 37,000  Level FlightAware Transoceanic
09:50 49.0683 -172.0961 92° East 507 583 37,000  Level FlightAware Transoceanic
09:50 49.0683 -172.0961 92° East 507 583 37,000  Level FlightAware Transoceanic
09:51 49.0632 -171.8863 92° East 507 583 37,000  Level FlightAware Transoceanic
09:51 49.0632 -171.8863 92° East 507 583 37,000  Level FlightAware Transoceanic
09:52 49.0577 -171.6765 92° East 507 583 37,000  Level FlightAware Transoceanic
09:52 49.0577 -171.6765 92° East 507 583 37,000  Level FlightAware Transoceanic
09:53 49.0518 -171.4667 93° East 507 583 37,000  Level FlightAware Transoceanic
09:53 49.0518 -171.4667 93° East 507 583 37,000  Level FlightAware Transoceanic
09:54 49.0455 -171.2570 93° East 507 583 37,000  Level FlightAware Transoceanic
09:54 49.0455 -171.2570 93° East 507 583 37,000  Level FlightAware Transoceanic
09:55 49.0389 -171.0473 93° East 507 583 37,000  Level FlightAware Transoceanic
09:55 49.0389 -171.0473 93° East 507 583 37,000  Level FlightAware Transoceanic
09:56 49.0319 -170.8377 93° East 507 583 37,000  Level FlightAware Transoceanic
09:56 49.0319 -170.8377 93° East 507 583 37,000  Level FlightAware Transoceanic
09:57 49.0245 -170.6282 93° East 507 583 37,000  Level FlightAware Transoceanic
09:57 49.0245 -170.6282 93° East 507 583 37,000  Level FlightAware Transoceanic
09:58 49.0167 -170.4187 93° East 507 583 37,000  Level FlightAware Transoceanic
09:58 49.0167 -170.4187 93° East 507 583 37,000  Level FlightAware Transoceanic
09:59 49.0085 -170.2093 93° East 507 583 37,000  Level FlightAware Transoceanic
09:59 49.0085 -170.2093 93° East 507 583 37,000  Level FlightAware Transoceanic
10:00 49.0000 -170.0000 86° East 507 583 37,000  Level FlightAware Transoceanic
10:00 49.0000 -170.0000 86° East 507 583 37,000  Level FlightAware Transoceanic
10:00 49.0000 -170.0000 86° East 531 611 37,000  Level Oakland Oceanic (ODAPS)
10:00 49.0000 -170.0000 86° East 531 611 37,000  Level Oakland Oceanic (ODAPS)
10:01 49.0096 -169.7733 86° East 507 583 37,000  Level FlightAware Transoceanic
10:01 49.0096 -169.7733 86° East 507 583 37,000  Level FlightAware Transoceanic
10:02 49.0187 -169.5466 87° East 507 583 37,000  Level FlightAware Transoceanic
10:02 49.0187 -169.5466 87° East 507 583 37,000  Level FlightAware Transoceanic
10:03 49.0275 -169.3198 87° East 507 583 37,000  Level FlightAware Transoceanic
10:03 49.0275 -169.3198 87° East 507 583 37,000  Level FlightAware Transoceanic
10:04 49.0357 -169.0929 87° East 507 583 37,000  Level FlightAware Transoceanic
10:04 49.0357 -169.0929 87° East 507 583 37,000  Level FlightAware Transoceanic
10:04 49.0333 -168.9667 87° East 536 617 37,000  Level Oakland Oceanic (ODAPS)
10:04 49.0333 -168.9667 87° East 536 617 37,000  Level Oakland Oceanic (ODAPS)
10:05 49.0435 -168.8659 87° East 507 583 37,000  Level FlightAware Transoceanic
10:05 49.0435 -168.8659 87° East 507 583 37,000  Level FlightAware Transoceanic
10:06 49.0509 -168.6389 87° East 531 611 37,000  Level FlightAware Transoceanic
10:06 49.0509 -168.6389 87° East 531 611 37,000  Level FlightAware Transoceanic
10:07 49.0578 -168.4117 87° East 531 611 37,000  Level FlightAware Transoceanic
10:07 49.0578 -168.4117 87° East 531 611 37,000  Level FlightAware Transoceanic
10:08 49.0643 -168.1846 88° East 531 611 37,000  Level FlightAware Transoceanic
10:08 49.0643 -168.1846 88° East 531 611 37,000  Level FlightAware Transoceanic
10:09 49.0703 -167.9573 88° East 531 611 37,000  Level FlightAware Transoceanic
10:09 49.0703 -167.9573 88° East 531 611 37,000  Level FlightAware Transoceanic
10:10 49.0759 -167.7301 88° East 531 611 37,000  Level FlightAware Transoceanic
10:10 49.0759 -167.7301 88° East 531 611 37,000  Level FlightAware Transoceanic
10:11 49.0734 -167.5883 88° East 536 617 37,000  Level FlightAware Transoceanic
10:11 49.0734 -167.5883 88° East 536 617 37,000  Level FlightAware Transoceanic
10:12 49.0785 -167.3584 88° East 536 617 37,000  Level FlightAware Transoceanic
10:12 49.0785 -167.3584 88° East 536 617 37,000  Level FlightAware Transoceanic
10:13 49.0832 -167.1284 88° East 536 617 37,000  Level FlightAware Transoceanic
10:13 49.0832 -167.1284 88° East 536 617 37,000  Level FlightAware Transoceanic
10:14 49.0873 -166.8984 88° East 536 617 37,000  Level FlightAware Transoceanic
10:14 49.0873 -166.8984 88° East 536 617 37,000  Level FlightAware Transoceanic
10:15 49.0911 -166.6683 89° East 536 617 37,000  Level FlightAware Transoceanic
10:15 49.0911 -166.6683 89° East 536 617 37,000  Level FlightAware Transoceanic
10:16 49.0943 -166.4382 89° East 536 617 37,000  Level FlightAware Transoceanic
10:16 49.0943 -166.4382 89° East 536 617 37,000  Level FlightAware Transoceanic
10:17 49.0971 -166.2081 89° East 536 617 37,000  Level FlightAware Transoceanic
10:17 49.0971 -166.2081 89° East 536 617 37,000  Level FlightAware Transoceanic
10:18 49.0995 -165.9780 89° East 536 617 37,000  Level FlightAware Transoceanic
10:18 49.0995 -165.9780 89° East 536 617 37,000  Level FlightAware Transoceanic
10:19 49.1014 -165.7478 89° East 536 617 37,000  Level FlightAware Transoceanic
10:19 49.1014 -165.7478 89° East 536 617 37,000  Level FlightAware Transoceanic
10:20 49.1028 -165.5177 90° East 536 617 37,000  Level FlightAware Transoceanic
10:20 49.1028 -165.5177 90° East 536 617 37,000  Level FlightAware Transoceanic
10:21 49.1038 -165.2875 90° East 536 617 37,000  Level FlightAware Transoceanic
10:21 49.1038 -165.2875 90° East 536 617 37,000  Level FlightAware Transoceanic
10:22 49.1043 -165.0573 90° East 536 617 37,000  Level FlightAware Transoceanic
10:22 49.1043 -165.0573 90° East 536 617 37,000  Level FlightAware Transoceanic
10:23 49.1044 -164.8271 90° East 536 617 37,000  Level FlightAware Transoceanic
10:23 49.1044 -164.8271 90° East 536 617 37,000  Level FlightAware Transoceanic
10:24 49.1040 -164.5969 90° East 536 617 37,000  Level FlightAware Transoceanic
10:24 49.1040 -164.5969 90° East 536 617 37,000  Level FlightAware Transoceanic
10:25 49.1031 -164.3667 90° East 536 617 37,000  Level FlightAware Transoceanic
10:25 49.1031 -164.3667 90° East 536 617 37,000  Level FlightAware Transoceanic
10:26 49.1018 -164.1366 91° East 536 617 37,000  Level FlightAware Transoceanic
10:26 49.1018 -164.1366 91° East 536 617 37,000  Level FlightAware Transoceanic
10:27 49.1000 -163.9064 91° East 536 617 37,000  Level FlightAware Transoceanic
10:27 49.1000 -163.9064 91° East 536 617 37,000  Level FlightAware Transoceanic
10:28 49.0978 -163.6763 91° East 536 617 37,000  Level FlightAware Transoceanic
10:28 49.0978 -163.6763 91° East 536 617 37,000  Level FlightAware Transoceanic
10:29 49.0951 -163.4462 91° East 536 617 37,000  Level FlightAware Transoceanic
10:29 49.0951 -163.4462 91° East 536 617 37,000  Level FlightAware Transoceanic
10:30 49.0919 -163.2161 91° East 536 617 37,000  Level FlightAware Transoceanic
10:30 49.0919 -163.2161 91° East 536 617 37,000  Level FlightAware Transoceanic
10:31 49.0883 -162.9860 91° East 536 617 37,000  Level FlightAware Transoceanic
10:31 49.0883 -162.9860 91° East 536 617 37,000  Level FlightAware Transoceanic
10:31 49.1000 -163.0500 92° East 554 638 37,000  Level Oakland Oceanic (ODAPS)
10:31 49.1000 -163.0500 92° East 554 638 37,000  Level Oakland Oceanic (ODAPS)
10:32 49.0843 -162.7560 92° East 536 617 37,000  Level FlightAware Transoceanic
10:32 49.0843 -162.7560 92° East 536 617 37,000  Level FlightAware Transoceanic
10:33 49.0798 -162.5260 92° East 536 617 37,000  Level FlightAware Transoceanic
10:33 49.0798 -162.5260 92° East 536 617 37,000  Level FlightAware Transoceanic
10:34 49.0748 -162.2961 92° East 536 617 37,000  Level FlightAware Transoceanic
10:34 49.0748 -162.2961 92° East 536 617 37,000  Level FlightAware Transoceanic
10:35 49.0694 -162.0662 92° East 536 617 37,000  Level FlightAware Transoceanic
10:35 49.0694 -162.0662 92° East 536 617 37,000  Level FlightAware Transoceanic
10:36 49.0635 -161.8363 92° East 536 617 37,000  Level FlightAware Transoceanic
10:36 49.0635 -161.8363 92° East 536 617 37,000  Level FlightAware Transoceanic
10:37 49.0638 -161.6408 93° East 554 638 37,000  Level FlightAware Transoceanic
10:37 49.0638 -161.6408 93° East 554 638 37,000  Level FlightAware Transoceanic
10:38 49.0561 -161.4061 93° East 554 638 37,000  Level FlightAware Transoceanic
10:38 49.0561 -161.4061 93° East 554 638 37,000  Level FlightAware Transoceanic
10:39 49.0480 -161.1716 93° East 554 638 37,000  Level FlightAware Transoceanic
10:39 49.0480 -161.1716 93° East 554 638 37,000  Level FlightAware Transoceanic
10:40 49.0393 -160.9371 93° East 554 638 37,000  Level FlightAware Transoceanic
10:40 49.0393 -160.9371 93° East 554 638 37,000  Level FlightAware Transoceanic
10:41 49.0302 -160.7027 93° East 554 638 37,000  Level FlightAware Transoceanic
10:41 49.0302 -160.7027 93° East 554 638 37,000  Level FlightAware Transoceanic
10:42 49.0206 -160.4684 94° East 554 638 37,000  Level FlightAware Transoceanic
10:42 49.0206 -160.4684 94° East 554 638 37,000  Level FlightAware Transoceanic
10:43 49.0105 -160.2341 94° East 554 638 37,000  Level FlightAware Transoceanic
10:43 49.0105 -160.2341 94° East 554 638 37,000  Level FlightAware Transoceanic
10:44 49.0000 -160.0000 95° East 554 638 37,000  Level FlightAware Transoceanic
10:44 49.0000 -160.0000 95° East 554 638 37,000  Level FlightAware Transoceanic
10:44 49.0000 -160.0000 95° East 542 624 37,000  Level Oakland Oceanic (ODAPS)
10:44 49.0000 -160.0000 95° East 542 624 37,000  Level Oakland Oceanic (ODAPS)
10:45 48.9876 -159.7789 95° East 554 638 37,000  Level FlightAware Transoceanic
10:45 48.9876 -159.7789 95° East 554 638 37,000  Level FlightAware Transoceanic
10:46 48.9747 -159.5580 95° East 554 638 37,000  Level FlightAware Transoceanic
10:46 48.9747 -159.5580 95° East 554 638 37,000  Level FlightAware Transoceanic
10:47 48.9615 -159.3372 95° East 554 638 37,000  Level FlightAware Transoceanic
10:47 48.9615 -159.3372 95° East 554 638 37,000  Level FlightAware Transoceanic
10:48 48.9478 -159.1165 95° East 554 638 37,000  Level FlightAware Transoceanic
10:48 48.9478 -159.1165 95° East 554 638 37,000  Level FlightAware Transoceanic
10:49 48.9337 -158.8959 96° East 554 638 37,000  Level FlightAware Transoceanic
10:49 48.9337 -158.8959 96° East 554 638 37,000  Level FlightAware Transoceanic
10:50 48.9172 -158.6461 96° East 542 624 37,000  Level FlightAware Transoceanic
10:50 48.9172 -158.6461 96° East 542 624 37,000  Level FlightAware Transoceanic
10:51 48.9018 -158.4209 96° East 542 624 37,000  Level FlightAware Transoceanic
10:51 48.9018 -158.4209 96° East 542 624 37,000  Level FlightAware Transoceanic
10:52 48.8861 -158.1958 96° East 542 624 37,000  Level FlightAware Transoceanic
10:52 48.8861 -158.1958 96° East 542 624 37,000  Level FlightAware Transoceanic
10:53 48.8699 -157.9709 96° East 542 624 37,000  Level FlightAware Transoceanic
10:53 48.8699 -157.9709 96° East 542 624 37,000  Level FlightAware Transoceanic
10:54 48.8532 -157.7462 97° East 542 624 37,000  Level FlightAware Transoceanic
10:54 48.8532 -157.7462 97° East 542 624 37,000  Level FlightAware Transoceanic
10:55 48.8361 -157.5215 97° East 542 624 37,000  Level FlightAware Transoceanic
10:55 48.8361 -157.5215 97° East 542 624 37,000  Level FlightAware Transoceanic
10:56 48.8186 -157.2971 97° East 542 624 37,000  Level FlightAware Transoceanic
10:56 48.8186 -157.2971 97° East 542 624 37,000  Level FlightAware Transoceanic
10:57 48.8006 -157.0728 97° East 542 624 37,000  Level FlightAware Transoceanic
10:57 48.8006 -157.0728 97° East 542 624 37,000  Level FlightAware Transoceanic
10:58 48.7822 -156.8486 97° East 542 624 37,000  Level FlightAware Transoceanic
10:58 48.7822 -156.8486 97° East 542 624 37,000  Level FlightAware Transoceanic
10:58 48.7833 -156.9167 97° East 530 610 37,000  Level Oakland Oceanic (ODAPS)
10:58 48.7833 -156.9167 97° East 530 610 37,000  Level Oakland Oceanic (ODAPS)
10:59 48.7634 -156.6247 97° East 542 624 37,000  Level FlightAware Transoceanic
10:59 48.7634 -156.6247 97° East 542 624 37,000  Level FlightAware Transoceanic
11:00 48.7441 -156.4009 98° East 542 624 37,000  Level FlightAware Transoceanic
11:00 48.7441 -156.4009 98° East 542 624 37,000  Level FlightAware Transoceanic
11:01 48.7244 -156.1772 98° East 542 624 37,000  Level FlightAware Transoceanic
11:01 48.7244 -156.1772 98° East 542 624 37,000  Level FlightAware Transoceanic
11:02 48.7043 -155.9538 98° East 542 624 37,000  Level FlightAware Transoceanic
11:02 48.7043 -155.9538 98° East 542 624 37,000  Level FlightAware Transoceanic
11:03 48.6837 -155.7305 98° East 542 624 37,000  Level FlightAware Transoceanic
11:03 48.6837 -155.7305 98° East 542 624 37,000  Level FlightAware Transoceanic
11:04 48.6682 -155.6044 98° East 530 610 37,000  Level FlightAware Transoceanic
11:04 48.6682 -155.6044 98° East 530 610 37,000  Level FlightAware Transoceanic
11:05 48.6476 -155.3862 98° East 530 610 37,000  Level FlightAware Transoceanic
11:05 48.6476 -155.3862 98° East 530 610 37,000  Level FlightAware Transoceanic
11:06 48.6266 -155.1683 98° East 530 610 37,000  Level FlightAware Transoceanic
11:06 48.6266 -155.1683 98° East 530 610 37,000  Level FlightAware Transoceanic
11:07 48.6051 -154.9505 99° East 530 610 37,000  Level FlightAware Transoceanic
11:07 48.6051 -154.9505 99° East 530 610 37,000  Level FlightAware Transoceanic
11:08 48.5832 -154.7330 99° East 530 610 37,000  Level FlightAware Transoceanic
11:08 48.5832 -154.7330 99° East 530 610 37,000  Level FlightAware Transoceanic
11:09 48.5610 -154.5156 99° East 530 610 37,000  Level FlightAware Transoceanic
11:09 48.5610 -154.5156 99° East 530 610 37,000  Level FlightAware Transoceanic
11:10 48.5383 -154.2984 99° East 530 610 37,000  Level FlightAware Transoceanic
11:10 48.5383 -154.2984 99° East 530 610 37,000  Level FlightAware Transoceanic
11:11 48.5152 -154.0814 99° East 530 610 37,000  Level FlightAware Transoceanic
11:11 48.5152 -154.0814 99° East 530 610 37,000  Level FlightAware Transoceanic
11:12 48.4917 -153.8647 99° East 530 610 37,000  Level FlightAware Transoceanic
11:12 48.4917 -153.8647 99° East 530 610 37,000  Level FlightAware Transoceanic
11:13 48.4678 -153.6481 100° East 530 610 37,000  Level FlightAware Transoceanic
11:13 48.4678 -153.6481 100° East 530 610 37,000  Level FlightAware Transoceanic
11:14 48.4435 -153.4317 100° East 530 610 37,000  Level FlightAware Transoceanic
11:14 48.4435 -153.4317 100° East 530 610 37,000  Level FlightAware Transoceanic
11:15 48.4188 -153.2155 100° East 530 610 37,000  Level FlightAware Transoceanic
11:15 48.4188 -153.2155 100° East 530 610 37,000  Level FlightAware Transoceanic
11:16 48.3937 -152.9996 100° East 530 610 37,000  Level FlightAware Transoceanic
11:16 48.3937 -152.9996 100° East 530 610 37,000  Level FlightAware Transoceanic
11:17 48.3682 -152.7838 100° East 530 610 37,000  Level FlightAware Transoceanic
11:17 48.3682 -152.7838 100° East 530 610 37,000  Level FlightAware Transoceanic
11:18 48.3422 -152.5683 100° East 530 610 37,000  Level FlightAware Transoceanic
11:18 48.3422 -152.5683 100° East 530 610 37,000  Level FlightAware Transoceanic
11:19 48.3159 -152.3530 101° East 530 610 37,000  Level FlightAware Transoceanic
11:19 48.3159 -152.3530 101° East 530 610 37,000  Level FlightAware Transoceanic
11:20 48.2892 -152.1379 101° East 530 610 37,000  Level FlightAware Transoceanic
11:20 48.2892 -152.1379 101° East 530 610 37,000  Level FlightAware Transoceanic
11:21 48.2621 -151.9230 101° East 530 610 37,000  Level FlightAware Transoceanic
11:21 48.2621 -151.9230 101° East 530 610 37,000  Level FlightAware Transoceanic
11:22 48.2345 -151.7084 101° East 530 610 37,000  Level FlightAware Transoceanic
11:22 48.2345 -151.7084 101° East 530 610 37,000  Level FlightAware Transoceanic
11:23 48.2066 -151.4940 101° East 530 610 37,000  Level FlightAware Transoceanic
11:23 48.2066 -151.4940 101° East 530 610 37,000  Level FlightAware Transoceanic
11:24 48.1783 -151.2798 101° East 530 610 37,000  Level FlightAware Transoceanic
11:24 48.1783 -151.2798 101° East 530 610 37,000  Level FlightAware Transoceanic
11:25 48.1496 -151.0659 101° East 530 610 37,000  Level FlightAware Transoceanic
11:25 48.1496 -151.0659 101° East 530 610 37,000  Level FlightAware Transoceanic
11:26 48.1204 -150.8522 102° East 530 610 37,000  Level FlightAware Transoceanic
11:27 48.0909 -150.6388 102° East 530 610 37,000  Level FlightAware Transoceanic
11:28 48.0610 -150.4256 102° East 530 610 37,000  Level FlightAware Transoceanic
11:29 48.0307 -150.2127 102° East 530 610 37,000  Level FlightAware Transoceanic
11:30 48.0000 -150.0000 103° East 530 610 37,000  Level FlightAware Transoceanic
11:30 48.0000 -150.0000 103° East 522 601 37,000  Level Oakland Oceanic (ODAPS)
11:32 47.9358 -149.5779 103° East 522 601 37,000  Level FlightAware Transoceanic
11:33 47.9031 -149.3672 103° East 522 601 37,000  Level FlightAware Transoceanic
11:34 47.8700 -149.1568 103° East 522 601 37,000  Level FlightAware Transoceanic
11:35 47.8366 -148.9466 103° East 522 601 37,000  Level FlightAware Transoceanic
11:36 47.8027 -148.7368 104° East 522 601 37,000  Level FlightAware Transoceanic
11:37 47.7685 -148.5272 104° East 522 601 37,000  Level FlightAware Transoceanic
11:38 47.7339 -148.3179 104° East 522 601 37,000  Level FlightAware Transoceanic
11:39 47.6990 -148.1088 104° East 522 601 37,000  Level FlightAware Transoceanic
11:40 47.6636 -147.9001 104° East 522 601 37,000  Level FlightAware Transoceanic
11:41 47.6278 -147.6916 104° East 522 601 37,000  Level FlightAware Transoceanic
11:42 47.5917 -147.4834 105° East 522 601 37,000  Level FlightAware Transoceanic
11:43 47.5552 -147.2755 105° East 522 601 37,000  Level FlightAware Transoceanic
11:44 47.5184 -147.0679 105° East 522 601 37,000  Level FlightAware Transoceanic
11:45 47.4811 -146.8606 105° East 522 601 37,000  Level FlightAware Transoceanic
11:46 47.4435 -146.6536 105° East 522 601 37,000  Level FlightAware Transoceanic
11:47 47.4055 -146.4469 105° East 522 601 37,000  Level FlightAware Transoceanic
11:48 47.3672 -146.2405 105° East 522 601 37,000  Level FlightAware Transoceanic
11:49 47.3285 -146.0343 106° East 522 601 37,000  Level FlightAware Transoceanic
11:50 47.2894 -145.8285 106° East 522 601 37,000  Level FlightAware Transoceanic
11:51 47.2499 -145.6230 106° East 522 601 37,000 1,320 Level FlightAware Transoceanic
11:51 47.2333 -145.5500 106° East 513 590 39,000 660 Climbing Oakland Oceanic (ODAPS)
11:54 47.1183 -144.9643 106° East 513 590 39,000  Level FlightAware Transoceanic
11:55 47.0793 -144.7697 106° East 513 590 39,000  Level FlightAware Transoceanic
11:56 47.0400 -144.5753 107° East 513 590 39,000  Level FlightAware Transoceanic
11:57 47.0004 -144.3812 107° East 513 590 39,000  Level FlightAware Transoceanic
11:58 46.9604 -144.1874 107° East 513 590 39,000  Level FlightAware Transoceanic
11:59 46.9201 -143.9939 107° East 513 590 39,000  Level FlightAware Transoceanic
12:00 46.8795 -143.8007 107° East 513 590 39,000  Level FlightAware Transoceanic
12:01 46.8385 -143.6078 107° East 513 590 39,000  Level FlightAware Transoceanic
12:02 46.7972 -143.4152 107° East 513 590 39,000  Level FlightAware Transoceanic
12:03 46.7556 -143.2229 108° East 513 590 39,000  Level FlightAware Transoceanic
12:04 46.7137 -143.0309 108° East 513 590 39,000  Level FlightAware Transoceanic
12:05 46.6715 -142.8391 108° East 513 590 39,000  Level FlightAware Transoceanic
12:06 46.6289 -142.6477 108° East 513 590 39,000  Level FlightAware Transoceanic
12:07 46.5860 -142.4566 108° East 513 590 39,000  Level FlightAware Transoceanic
12:08 46.5428 -142.2657 108° East 513 590 39,000  Level FlightAware Transoceanic
12:09 46.4993 -142.0752 108° East 513 590 39,000  Level FlightAware Transoceanic
12:10 46.4555 -141.8850 109° East 513 590 39,000  Level FlightAware Transoceanic
12:11 46.4113 -141.6951 109° East 513 590 39,000  Level FlightAware Transoceanic
12:12 46.3669 -141.5055 109° East 513 590 39,000  Level FlightAware Transoceanic
12:13 46.3221 -141.3162 109° East 513 590 39,000  Level FlightAware Transoceanic
12:14 46.2770 -141.1273 109° East 513 590 39,000  Level FlightAware Transoceanic
12:15 46.2316 -140.9386 109° East 513 590 39,000  Level FlightAware Transoceanic
12:16 46.1859 -140.7502 109° East 513 590 39,000  Level FlightAware Transoceanic
12:17 46.1399 -140.5622 110° East 513 590 39,000  Level FlightAware Transoceanic
12:18 46.0936 -140.3745 110° East 513 590 39,000  Level FlightAware Transoceanic
12:18 46.1000 -140.3833 110° East 502 578 39,000  Level Oakland Oceanic (ODAPS)
12:19 46.0469 -140.1871 110° East 513 590 39,000  Level FlightAware Transoceanic
12:20 46.0000 -140.0000 116° Southeast 513 590 39,000  Level FlightAware Transoceanic
12:20 46.0000 -140.0000 116° Southeast 502 578 39,000  Level Oakland Oceanic (ODAPS)
12:21 45.9388 -139.8161 116° Southeast 513 590 39,000  Level FlightAware Transoceanic
12:22 45.8772 -139.6325 116° Southeast 513 590 39,000  Level FlightAware Transoceanic
12:23 45.8154 -139.4494 116° Southeast 513 590 39,000  Level FlightAware Transoceanic
12:24 45.7575 -139.2791 116° Southeast 502 578 39,000  Level FlightAware Transoceanic
12:25 45.6962 -139.0998 116° Southeast 502 578 39,000  Level FlightAware Transoceanic
12:26 45.6345 -138.9209 116° Southeast 502 578 39,000  Level FlightAware Transoceanic
12:27 45.5726 -138.7425 116° Southeast 502 578 39,000  Level FlightAware Transoceanic
12:28 45.5105 -138.5644 117° Southeast 502 578 39,000  Level FlightAware Transoceanic
12:29 45.4480 -138.3867 117° Southeast 502 578 39,000  Level FlightAware Transoceanic
12:30 45.3853 -138.2094 117° Southeast 502 578 39,000  Level FlightAware Transoceanic
12:31 45.3223 -138.0325 117° Southeast 502 578 39,000  Level FlightAware Transoceanic
12:32 45.2590 -137.8560 117° Southeast 502 578 39,000  Level FlightAware Transoceanic
12:33 45.1955 -137.6799 117° Southeast 502 578 39,000  Level FlightAware Transoceanic
12:34 45.1317 -137.5042 117° Southeast 502 578 39,000  Level FlightAware Transoceanic
12:35 45.0676 -137.3289 117° Southeast 502 578 39,000  Level FlightAware Transoceanic
12:36 45.0033 -137.1540 118° Southeast 502 578 39,000  Level FlightAware Transoceanic
12:37 44.9387 -136.9795 118° Southeast 502 578 39,000  Level FlightAware Transoceanic
12:38 44.8738 -136.8053 118° Southeast 502 578 39,000  Level FlightAware Transoceanic
12:39 44.8087 -136.6316 118° Southeast 502 578 39,000  Level FlightAware Transoceanic
12:40 44.7433 -136.4582 118° Southeast 502 578 39,000  Level FlightAware Transoceanic
12:41 44.6776 -136.2853 118° Southeast 502 578 39,000  Level FlightAware Transoceanic
12:42 44.6117 -136.1127 118° Southeast 502 578 39,000  Level FlightAware Transoceanic
12:43 44.5455 -135.9406 118° Southeast 502 578 39,000  Level FlightAware Transoceanic
12:44 44.4790 -135.7688 119° Southeast 502 578 39,000  Level FlightAware Transoceanic
12:44 44.4500 -135.7000 119° Southeast 503 579 39,000  Level Oakland Oceanic (ODAPS)
12:45 44.4123 -135.5974 119° Southeast 502 578 39,000  Level FlightAware Transoceanic
12:46 44.3454 -135.4264 119° Southeast 502 578 39,000  Level FlightAware Transoceanic
12:47 44.2782 -135.2558 119° Southeast 502 578 39,000  Level FlightAware Transoceanic
12:48 44.2107 -135.0856 119° Southeast 502 578 39,000  Level FlightAware Transoceanic
12:49 44.1430 -134.9157 119° Southeast 502 578 39,000  Level FlightAware Transoceanic
12:50 44.0750 -134.7463 119° Southeast 502 578 39,000  Level FlightAware Transoceanic
12:51 44.0386 -134.6606 119° Southeast 503 579 39,000  Level FlightAware Transoceanic
12:52 43.9691 -134.4888 119° Southeast 503 579 39,000  Level FlightAware Transoceanic
12:53 43.8994 -134.3174 120° Southeast 503 579 39,000  Level FlightAware Transoceanic
12:54 43.8294 -134.1464 120° Southeast 503 579 39,000  Level FlightAware Transoceanic
12:55 43.7591 -133.9758 120° Southeast 503 579 39,000  Level FlightAware Transoceanic
12:56 43.6886 -133.8056 120° Southeast 503 579 39,000  Level FlightAware Transoceanic
12:57 43.6179 -133.6357 120° Southeast 503 579 39,000  Level FlightAware Transoceanic
12:58 43.5469 -133.4663 120° Southeast 503 579 39,000  Level FlightAware Transoceanic
12:59 43.4756 -133.2973 120° Southeast 503 579 39,000  Level FlightAware Transoceanic
13:00 43.4041 -133.1287 120° Southeast 503 579 39,000  Level FlightAware Transoceanic
13:01 43.3324 -132.9605 120° Southeast 503 579 39,000  Level FlightAware Transoceanic
13:02 43.2604 -132.7927 121° Southeast 503 579 39,000  Level FlightAware Transoceanic
13:03 43.1881 -132.6252 121° Southeast 503 579 39,000  Level FlightAware Transoceanic
13:04 43.1157 -132.4582 121° Southeast 503 579 39,000  Level FlightAware Transoceanic
13:05 43.0429 -132.2916 121° Southeast 503 579 39,000  Level FlightAware Transoceanic
13:06 42.9700 -132.1254 121° Southeast 503 579 39,000  Level FlightAware Transoceanic
13:07 42.8968 -131.9595 121° Southeast 503 579 39,000  Level FlightAware Transoceanic
13:08 42.8233 -131.7941 121° Southeast 503 579 39,000  Level FlightAware Transoceanic
13:09 42.7496 -131.6290 121° Southeast 503 579 39,000  Level FlightAware Transoceanic
13:10 42.6757 -131.4644 121° Southeast 503 579 39,000  Level FlightAware Transoceanic
13:11 42.6016 -131.3001 122° Southeast 503 579 39,000  Level FlightAware Transoceanic
13:11 42.5833 -131.2667 121° Southeast 508 585 39,000  Level Oakland Oceanic (ODAPS)
13:12 42.5272 -131.1362 122° Southeast 503 579 39,000  Level FlightAware Transoceanic
13:13 42.4525 -130.9727 122° Southeast 503 579 39,000  Level FlightAware Transoceanic
13:14 42.3777 -130.8097 122° Southeast 503 579 39,000  Level FlightAware Transoceanic
13:15 42.3026 -130.6470 122° Southeast 503 579 39,000  Level FlightAware Transoceanic
13:16 42.2273 -130.4846 122° Southeast 503 579 39,000  Level FlightAware Transoceanic
13:17 42.1471 -130.3145 122° Southeast 508 585 39,000  Level FlightAware Transoceanic
13:18 42.0737 -130.1570 122° Southeast 508 585 39,000  Level FlightAware Transoceanic
13:19 42.0000 -130.0000 120° Southeast 508 585 39,000  Level FlightAware Transoceanic
13:19 42.0000 -130.0000 120° Southeast 509 586 39,000  Level Oakland Oceanic (ODAPS)
13:20 41.9300 -129.8389 120° Southeast 508 585 39,000  Level FlightAware Transoceanic
13:21 41.8599 -129.6783 120° Southeast 508 585 39,000  Level FlightAware Transoceanic
13:22 41.7894 -129.5179 121° Southeast 508 585 39,000  Level FlightAware Transoceanic
13:23 41.7188 -129.3579 121° Southeast 508 585 39,000  Level FlightAware Transoceanic
13:24 41.6480 -129.1983 121° Southeast 508 585 39,000  Level FlightAware Transoceanic
13:25 41.5769 -129.0390 121° Southeast 509 586 39,000  Level FlightAware Transoceanic
13:26 41.5056 -128.8801 121° Southeast 509 586 39,000  Level FlightAware Transoceanic
13:27 41.4341 -128.7215 121° Southeast 509 586 39,000  Level FlightAware Transoceanic
13:28 41.3624 -128.5633 121° Southeast 509 586 39,000  Level FlightAware Transoceanic
13:29 41.2904 -128.4054 121° Southeast 509 586 39,000  Level FlightAware Transoceanic
13:30 41.2182 -128.2478 121° Southeast 509 586 39,000  Level FlightAware Transoceanic
13:31 41.1459 -128.0906 122° Southeast 509 586 39,000  Level FlightAware Transoceanic
13:32 41.0733 -127.9338 122° Southeast 509 586 39,000  Level FlightAware Transoceanic
13:33 41.0005 -127.7773 122° Southeast 509 586 39,000  Level FlightAware Transoceanic
13:34 40.9275 -127.6212 122° Southeast 509 586 39,000  Level FlightAware Transoceanic
13:35 40.8543 -127.4653 122° Southeast 509 586 39,000  Level FlightAware Transoceanic
13:35 40.8447 -127.4514 118° Southeast 487 560 39,000  Level Oakland Center
13:36 40.7808 -127.3099 122° Southeast 509 586 39,000  Level FlightAware Transoceanic
13:36 40.7706 -127.3000 123° Southeast 488 562 39,000  Level Oakland Center
13:37 40.7072 -127.1548 122° Southeast 509 586 39,000  Level FlightAware Transoceanic
13:37 40.6997 -127.1492 122° Southeast 488 562 39,000  Level Oakland Center
13:38 40.6333 -127.0000 118° Southeast 509 586 39,000  Level FlightAware Transoceanic
13:38 40.6281 -126.9989 122° Southeast 487 560 39,000  Level Oakland Center
13:39 40.5670 -126.8341 118° Southeast 509 586 39,000  Level FlightAware Transoceanic
13:39 40.5611 -126.8425 119° Southeast 490 564 39,000  Level Oakland Center
13:40 40.5005 -126.6685 118° Southeast 509 586 39,000  Level FlightAware Transoceanic
13:40 40.5022 -126.6839 116° Southeast 489 563 39,000  Level Oakland Center
13:41 40.4372 -126.5297 119° Southeast 486 559 39,000  Level Oakland Center
13:42 40.3519 -126.3908 129° Southeast 487 560 39,000  Level Oakland Center
13:43 40.2664 -126.2542 129° Southeast 488 562 39,000  Level Oakland Center
13:49 39.7700 -125.4570 129° Southeast 487 560 39,000  Level FlightAware
13:49 39.7220 -125.3790 129° Southeast 487 560 39,000  Level FlightAware
13:50 39.6630 -125.2860 129° Southeast 487 560 39,000  Level FlightAware
13:51 39.6010 -125.1880 129° Southeast 487 560 39,000  Level FlightAware
13:51 39.5520 -125.1110 130° Southeast 486 559 39,000  Level FlightAware
13:52 39.4790 -124.9950 129° Southeast 486 559 39,000  Level FlightAware
13:53 39.4220 -124.9060 130° Southeast 485 558 39,000  Level FlightAware
13:54 39.3480 -124.7880 129° Southeast 485 558 39,000  Level FlightAware
13:54 39.2840 -124.6900 130° Southeast 485 558 39,000  Level FlightAware
13:55 39.2240 -124.5970 130° Southeast 484 557 39,000  Level FlightAware
13:56 39.1660 -124.5060 129° Southeast 484 557 39,000  Level FlightAware
13:57 39.1120 -124.4240 130° Southeast 485 558 39,000 -600 Level FlightAware
13:57 39.0430 -124.3160 129° Southeast 482 555 38,200 -1,380 Descending FlightAware
13:58 38.9710 -124.2070 130° Southeast 483 556 36,800 -2,100 Descending FlightAware
13:59 38.8910 -124.0840 130° Southeast 486 559 34,600 -2,400 Descending FlightAware
14:00 38.8510 -124.0230 130° Southeast 487 560 33,500 -2,340 Descending FlightAware
14:00 38.7870 -123.9250 130° Southeast 489 563 31,800 -1,980 Descending FlightAware
14:01 38.7270 -123.8330 130° Southeast 478 550 30,700 -1,620 Descending FlightAware
14:02 38.6740 -123.7540 131° Southeast 464 534 29,700 -1,860 Descending FlightAware
14:02 38.6100 -123.6570 130° Southeast 455 524 28,100 -2,100 Descending FlightAware
14:03 38.5580 -123.5790 130° Southeast 449 517 26,800 -2,100 Descending FlightAware
14:04 38.4960 -123.4860 130° Southeast 442 509 25,200 -2,040 Descending FlightAware
14:04 38.4430 -123.4070 131° Southeast 436 502 23,900 -2,040 Descending FlightAware
14:05 38.3920 -123.3300 130° Southeast 430 495 22,500 -2,040 Descending FlightAware
14:06 38.3360 -123.2470 131° Southeast 422 486 21,100 -1,980 Descending FlightAware
14:07 38.2800 -123.1640 131° Southeast 414 476 19,600 -2,040 Descending FlightAware
14:07 38.2280 -123.0860 130° Southeast 407 468 18,200 -1,860 Descending FlightAware
14:08 38.1770 -123.0120 131° Southeast 397 457 17,000 -1,800 Descending FlightAware
14:09 38.1330 -122.9460 130° Southeast 392 451 15,800 -1,980 Descending FlightAware
14:09 38.0810 -122.8720 132° Southeast 383 441 14,400 -1,980 Descending FlightAware
14:10 38.0290 -122.8130 138° Southeast 377 434 13,100 -1,980 Descending FlightAware
14:11 37.9830 -122.7630 139° Southeast 371 427 11,900 -1,260 Descending FlightAware
14:11 37.9147 -122.6900 140° Southeast 334 384 11,300 -420 Descending FlightAware ADS-B
14:13 37.8407 -122.6100 140° Southeast 318 366 11,100 -120 Descending FlightAware ADS-B
14:13 37.7950 -122.5610 140° Southeast 300 345 11,100  Level FlightAware
14:14 37.7760 -122.5410 140° Southeast 298 343 11,100  Level FlightAware ADS-B
14:14 37.7364 -122.4980 139° Southeast 262 302 11,100  Level FlightAware ADS-B
14:15 37.7088 -122.4690 140° Southeast 253 291 11,100  Level FlightAware ADS-B
14:15 37.6744 -122.4320 140° Southeast 255 293 11,100  Level FlightAware ADS-B
14:16 37.6471 -122.4030 140° Southeast 254 292 11,100  Level FlightAware ADS-B
14:16 37.6267 -122.3820 141° Southeast 255 293 11,100  Level FlightAware ADS-B
14:16 37.6216 -122.3770 142° Southeast 254 292 11,100  Level FlightAware ADS-B
14:17 37.6138 -122.3710 149° Southeast 252 290 11,100 -900 Level FlightAware ADS-B
14:17 37.5792 -122.3480 152° Southeast 250 288 10,500 -1,020 Descending FlightAware ADS-B
14:18 37.5476 -122.3270 152° Southeast 250 288 10,000 -1,080 Descending FlightAware ADS-B
14:18 37.5320 -122.3170 153° Southeast 249 287 9,700 -1,200 Descending FlightAware ADS-B
14:18 37.5158 -122.3060 152° Southeast 249 287 9,400 -1,020 Descending FlightAware ADS-B
14:18 37.5005 -122.2960 153° Southeast 248 285 9,200 -600 Descending FlightAware ADS-B
14:19 37.4848 -122.2860 153° Southeast 248 285 9,100 -240 Descending FlightAware ADS-B
14:19 37.4691 -122.2760 153° Southeast 249 287 9,100  Level FlightAware ADS-B
14:19 37.4557 -122.2670 152° Southeast 249 287 9,100  Level FlightAware ADS-B
14:19 37.4516 -122.2640 150° Southeast 248 285 9,100 -780 Level FlightAware ADS-B
14:19 37.4481 -122.2600 138° Southeast 248 285 9,000 -780 Descending FlightAware ADS-B
14:19 37.4451 -122.2570 142° Southeast 249 287 9,000 -780 Level FlightAware ADS-B
14:19 37.4420 -122.2520 128° Southeast 249 287 8,900 -1,740 Descending FlightAware ADS-B
14:19 37.4398 -122.2480 125° Southeast 251 289 8,800 -900 Descending FlightAware ADS-B
14:19 37.4377 -122.2430 118° Southeast 251 289 8,800 -720 Level FlightAware ADS-B
14:20 37.4351 -122.2360 115° Southeast 251 289 8,700 -1,200 Descending FlightAware ADS-B
14:20 37.4284 -122.2150 112° Southeast 252 290 8,400 -1,200 Descending FlightAware ADS-B
14:20 37.4216 -122.1940 112° Southeast 251 289 8,100 -1,020 Descending FlightAware ADS-B
14:20 37.4148 -122.1740 113° Southeast 249 287 7,900 -1,020 Descending FlightAware ADS-B
14:21 37.4085 -122.1540 112° Southeast 249 287 7,600 -1,200 Descending FlightAware ADS-B
14:21 37.4067 -122.1480 111° Southeast 249 287 7,500 -1,500 Descending FlightAware ADS-B
14:21 37.4057 -122.1430 104° East 248 285 7,400 -1,740 Descending FlightAware ADS-B
14:21 37.4049 -122.1370 100° East 248 285 7,300 -1,500 Descending FlightAware ADS-B
14:21 37.4047 -122.1320 93° East 248 285 7,200 -1,500 Descending FlightAware ADS-B
14:21 37.4051 -122.1260 85° East 248 285 7,100 -2,040 Descending FlightAware ADS-B
14:21 37.4066 -122.1190 75° East 247 284 6,900 -2,280 Descending FlightAware ADS-B
14:21 37.4080 -122.1140 71° East 247 284 6,800 -1,500 Descending FlightAware ADS-B
14:21 37.4103 -122.1090 60° Northeast 246 283 6,700 -1,380 Descending FlightAware ADS-B
14:21 37.4130 -122.1050 50° Northeast 246 283 6,600 -1,740 Descending FlightAware ADS-B
14:21 37.4158 -122.1010 49° Northeast 245 282 6,500 -2,040 Descending FlightAware ADS-B
14:21 37.4204 -122.0950 46° Northeast 245 282 6,300 -1,740 Descending FlightAware ADS-B
14:22 37.4333 -122.0800 43° Northeast 248 285 5,900 -1,620 Descending FlightAware ADS-B
14:22 37.4397 -122.0740 37° Northeast 249 287 5,700 -1,140 Descending FlightAware ADS-B
14:22 37.4431 -122.0710 35° Northeast 249 287 5,700 -900 Level FlightAware ADS-B
14:22 37.4471 -122.0690 22° Northeast 248 285 5,600 -900 Descending FlightAware ADS-B
14:22 37.4513 -122.0680 11° North 247 284 5,600 -900 Level FlightAware ADS-B
14:22 37.4549 -122.0670 12° North 246 283 5,500 -900 Descending FlightAware ADS-B
14:22 37.4583 -122.0670 360° North 246 283 5,500 -900 Level FlightAware ADS-B
14:22 37.4628 -122.0670 360° North 245 282 5,400 -1,500 Descending FlightAware ADS-B
14:22 37.4675 -122.0680 350° North 244 281 5,300 -900 Descending FlightAware ADS-B
14:22 37.4709 -122.0700 335° Northwest 243 280 5,300 -1,020 Level FlightAware ADS-B
14:22 37.4741 -122.0720 334° Northwest 242 278 5,200 -900 Descending FlightAware ADS-B
14:22 37.4774 -122.0740 334° Northwest 242 278 5,200 -1,020 Level FlightAware ADS-B
14:22 37.4854 -122.0810 325° Northwest 243 280 5,000 -1,740 Descending FlightAware ADS-B
14:23 37.4909 -122.0850 330° Northwest 243 280 4,800 -1,200 Descending FlightAware ADS-B
14:23 37.4941 -122.0880 323° Northwest 244 281 4,800 -780 Level FlightAware ADS-B
14:23 37.4973 -122.0920 315° West 243 280 4,700 -1,740 Descending FlightAware ADS-B
14:23 37.4999 -122.0960 309° West 242 278 4,600 -900 Descending FlightAware ADS-B
14:23 37.5026 -122.1010 304° West 240 276 4,600 -540 Level FlightAware ADS-B
14:23 37.5066 -122.1100 299° West 237 273 4,500 -840 Descending FlightAware ADS-B
14:23 37.5145 -122.1280 299° West 228 262 4,300 -540 Descending FlightAware ADS-B
14:23 37.5192 -122.1390 298° West 221 254 4,300 -240 Level FlightAware ADS-B
14:24 37.5266 -122.1570 297° West 212 244 4,200 -720 Descending FlightAware ADS-B
14:24 37.5351 -122.1760 299° West 208 239 3,900 -960 Descending FlightAware ADS-B
14:24 37.5414 -122.1910 298° West 204 235 3,700 -1,080 Descending FlightAware ADS-B
14:24 37.5481 -122.2070 298° West 203 234 3,400 -1,200 Descending FlightAware ADS-B
14:25 37.5548 -122.2230 298° West 195 224 3,100 -1,140 Descending FlightAware ADS-B
14:25 37.5614 -122.2390 297° West 190 219 2,800 -1,500 Descending FlightAware ADS-B
14:25 37.5669 -122.2520 298° West 187 215 2,400 -1,320 Descending FlightAware ADS-B
14:25 37.5730 -122.2660 299° West 187 215 2,200 -1,080 Descending FlightAware ADS-B
14:26 37.5785 -122.2790 298° West 186 214 1,900 -1,020 Descending FlightAware ADS-B
14:26 37.5847 -122.2940 298° West 178 205 1,700 -1,020 Descending FlightAware ADS-B
14:26 37.5900 -122.3070 297° West 169 194 1,400 -1,380 Descending FlightAware ADS-B
14:27 37.5988 -122.3270 299° West 145 167 800 -1,380 Descending FlightAware ADS-B
14:27 37.6016 -122.3340 297° West 141 162 600 -1,320 Descending FlightAware ADS-B
14:27 37.6045 -122.3410 298° West 134 154 400 -900 Descending FlightAware ADS-B
14:27 37.6073 -122.3480 297° West 123 142 300 -840 Descending FlightAware ADS-B
14:27 37.6103 -122.3550 298° West 109 125 100 -1,140 Descending FlightAware ADS-B